sensor_id;sensor_type;location;lat;lon;timestamp;P1;durP1;ratioP1;P2;durP2;ratioP2
15381;SDS011;7789;51.364;12.358;2023-01-31T00:03:35;9.63;;;2.00;;
15381;SDS011;7789;51.364;12.358;2023-01-31T00:08:42;12.33;;;2.60;;
15381;SDS011;7789;51.364;12.358;2023-01-31T00:13:45;8.97;;;2.17;;
15381;SDS011;7789;51.364;12.358;2023-01-31T00:18:49;7.40;;;1.73;;
15381;SDS011;7789;51.364;12.358;2023-01-31T00:23:54;9.60;;;2.20;;
15381;SDS011;7789;51.364;12.358;2023-01-31T00:29:00;9.53;;;2.50;;
15381;SDS011;7789;51.364;12.358;2023-01-31T00:34:05;12.27;;;2.10;;
15381;SDS011;7789;51.364;12.358;2023-01-31T00:39:10;11.13;;;2.33;;
15381;SDS011;7789;51.364;12.358;2023-01-31T00:44:14;13.23;;;2.73;;
15381;SDS011;7789;51.364;12.358;2023-01-31T00:49:17;12.80;;;2.10;;
15381;SDS011;7789;51.364;12.358;2023-01-31T00:54:22;12.63;;;3.07;;
15381;SDS011;7789;51.364;12.358;2023-01-31T00:59:25;10.67;;;2.00;;
15381;SDS011;7789;51.364;12.358;2023-01-31T01:04:29;9.00;;;2.13;;
15381;SDS011;7789;51.364;12.358;2023-01-31T01:09:33;10.00;;;1.97;;
15381;SDS011;7789;51.364;12.358;2023-01-31T01:14:36;7.87;;;1.67;;
15381;SDS011;7789;51.364;12.358;2023-01-31T01:19:40;9.70;;;1.50;;
15381;SDS011;7789;51.364;12.358;2023-01-31T01:24:44;5.87;;;1.60;;
15381;SDS011;7789;51.364;12.358;2023-01-31T01:29:48;11.40;;;2.00;;
15381;SDS011;7789;51.364;12.358;2023-01-31T01:34:52;6.77;;;1.70;;
15381;SDS011;7789;51.364;12.358;2023-01-31T01:39:57;9.00;;;1.47;;
15381;SDS011;7789;51.364;12.358;2023-01-31T01:45:01;10.53;;;2.03;;
15381;SDS011;7789;51.364;12.358;2023-01-31T01:50:09;9.93;;;1.70;;
15381;SDS011;7789;51.364;12.358;2023-01-31T01:55:18;10.90;;;1.83;;
15381;SDS011;7789;51.364;12.358;2023-01-31T02:00:24;7.93;;;2.10;;
15381;SDS011;7789;51.364;12.358;2023-01-31T02:05:32;10.77;;;1.47;;
15381;SDS011;7789;51.364;12.358;2023-01-31T02:10:43;15.03;;;1.93;;
15381;SDS011;7789;51.364;12.358;2023-01-31T02:16:01;12.33;;;1.90;;
15381;SDS011;7789;51.364;12.358;2023-01-31T02:21:18;10.70;;;2.33;;
15381;SDS011;7789;51.364;12.358;2023-01-31T02:26:51;15.90;;;1.70;;
15381;SDS011;7789;51.364;12.358;2023-01-31T02:37:56;9.00;;;1.50;;
15381;SDS011;7789;51.364;12.358;2023-01-31T02:43:12;7.33;;;1.80;;
15381;SDS011;7789;51.364;12.358;2023-01-31T02:48:25;8.60;;;1.57;;
15381;SDS011;7789;51.364;12.358;2023-01-31T02:53:38;8.03;;;1.70;;
15381;SDS011;7789;51.364;12.358;2023-01-31T02:58:49;5.47;;;1.80;;
15381;SDS011;7789;51.364;12.358;2023-01-31T03:03:59;6.40;;;1.50;;
15381;SDS011;7789;51.364;12.358;2023-01-31T03:09:06;6.90;;;1.80;;
15381;SDS011;7789;51.364;12.358;2023-01-31T03:14:25;4.77;;;1.33;;
15381;SDS011;7789;51.364;12.358;2023-01-31T03:19:35;7.03;;;1.77;;
15381;SDS011;7789;51.364;12.358;2023-01-31T03:24:44;7.93;;;1.60;;
15381;SDS011;7789;51.364;12.358;2023-01-31T03:29:50;8.83;;;1.70;;
15381;SDS011;7789;51.364;12.358;2023-01-31T03:35:00;11.00;;;1.90;;
15381;SDS011;7789;51.364;12.358;2023-01-31T03:40:05;11.40;;;2.33;;
15381;SDS011;7789;51.364;12.358;2023-01-31T03:45:17;9.77;;;2.50;;
15381;SDS011;7789;51.364;12.358;2023-01-31T03:50:27;13.90;;;2.37;;
15381;SDS011;7789;51.364;12.358;2023-01-31T03:55:36;10.50;;;1.97;;
15381;SDS011;7789;51.364;12.358;2023-01-31T04:00:44;8.47;;;1.93;;
15381;SDS011;7789;51.364;12.358;2023-01-31T04:05:51;9.73;;;2.67;;
15381;SDS011;7789;51.364;12.358;2023-01-31T04:10:55;12.93;;;2.53;;
15381;SDS011;7789;51.364;12.358;2023-01-31T04:16:00;9.73;;;2.47;;
15381;SDS011;7789;51.364;12.358;2023-01-31T04:21:05;7.93;;;2.30;;
15381;SDS011;7789;51.364;12.358;2023-01-31T04:26:09;9.87;;;1.90;;
15381;SDS011;7789;51.364;12.358;2023-01-31T04:31:12;8.87;;;1.93;;
15381;SDS011;7789;51.364;12.358;2023-01-31T04:36:17;11.57;;;1.70;;
15381;SDS011;7789;51.364;12.358;2023-01-31T04:41:22;6.13;;;1.80;;
15381;SDS011;7789;51.364;12.358;2023-01-31T04:46:32;8.13;;;2.00;;
15381;SDS011;7789;51.364;12.358;2023-01-31T04:51:37;9.13;;;1.73;;
15381;SDS011;7789;51.364;12.358;2023-01-31T04:56:44;11.60;;;1.90;;
15381;SDS011;7789;51.364;12.358;2023-01-31T05:01:47;6.30;;;1.60;;
15381;SDS011;7789;51.364;12.358;2023-01-31T05:06:54;9.33;;;1.50;;
15381;SDS011;7789;51.364;12.358;2023-01-31T05:11:58;7.87;;;2.10;;
15381;SDS011;7789;51.364;12.358;2023-01-31T05:17:01;9.30;;;1.87;;
15381;SDS011;7789;51.364;12.358;2023-01-31T05:22:06;6.17;;;1.87;;
15381;SDS011;7789;51.364;12.358;2023-01-31T05:27:10;7.57;;;1.77;;
15381;SDS011;7789;51.364;12.358;2023-01-31T05:32:18;8.97;;;2.00;;
15381;SDS011;7789;51.364;12.358;2023-01-31T05:37:23;10.93;;;1.90;;
15381;SDS011;7789;51.364;12.358;2023-01-31T05:42:26;9.27;;;2.20;;
15381;SDS011;7789;51.364;12.358;2023-01-31T05:47:29;9.20;;;2.80;;
15381;SDS011;7789;51.364;12.358;2023-01-31T05:52:34;10.33;;;2.07;;
15381;SDS011;7789;51.364;12.358;2023-01-31T05:57:39;9.17;;;1.53;;
15381;SDS011;7789;51.364;12.358;2023-01-31T06:02:43;9.87;;;1.80;;
15381;SDS011;7789;51.364;12.358;2023-01-31T06:07:48;9.73;;;1.93;;
15381;SDS011;7789;51.364;12.358;2023-01-31T06:12:51;10.70;;;1.90;;
15381;SDS011;7789;51.364;12.358;2023-01-31T06:17:55;11.67;;;2.37;;
15381;SDS011;7789;51.364;12.358;2023-01-31T06:22:59;7.47;;;1.77;;
15381;SDS011;7789;51.364;12.358;2023-01-31T06:28:03;11.93;;;1.90;;
15381;SDS011;7789;51.364;12.358;2023-01-31T06:33:06;9.63;;;2.10;;
15381;SDS011;7789;51.364;12.358;2023-01-31T06:38:11;6.27;;;1.70;;
15381;SDS011;7789;51.364;12.358;2023-01-31T06:43:16;8.37;;;2.20;;
15381;SDS011;7789;51.364;12.358;2023-01-31T06:48:19;8.50;;;2.07;;
15381;SDS011;7789;51.364;12.358;2023-01-31T06:53:24;8.87;;;1.60;;
15381;SDS011;7789;51.364;12.358;2023-01-31T06:58:27;10.27;;;2.07;;
15381;SDS011;7789;51.364;12.358;2023-01-31T07:03:31;10.57;;;1.80;;
15381;SDS011;7789;51.364;12.358;2023-01-31T07:08:38;7.30;;;1.80;;
15381;SDS011;7789;51.364;12.358;2023-01-31T07:13:41;6.40;;;1.80;;
15381;SDS011;7789;51.364;12.358;2023-01-31T07:18:46;8.90;;;2.20;;
15381;SDS011;7789;51.364;12.358;2023-01-31T07:23:51;7.63;;;1.57;;
15381;SDS011;7789;51.364;12.358;2023-01-31T07:28:54;6.37;;;1.63;;
15381;SDS011;7789;51.364;12.358;2023-01-31T07:33:57;7.73;;;2.07;;
15381;SDS011;7789;51.364;12.358;2023-01-31T07:39:02;6.63;;;1.50;;
15381;SDS011;7789;51.364;12.358;2023-01-31T07:44:07;8.03;;;2.13;;
15381;SDS011;7789;51.364;12.358;2023-01-31T07:49:12;8.40;;;1.87;;
15381;SDS011;7789;51.364;12.358;2023-01-31T07:54:18;6.67;;;1.50;;
15381;SDS011;7789;51.364;12.358;2023-01-31T07:59:29;11.17;;;2.30;;
15381;SDS011;7789;51.364;12.358;2023-01-31T08:04:34;12.10;;;2.20;;
15381;SDS011;7789;51.364;12.358;2023-01-31T08:09:39;9.37;;;2.03;;
15381;SDS011;7789;51.364;12.358;2023-01-31T08:14:44;11.30;;;2.67;;
15381;SDS011;7789;51.364;12.358;2023-01-31T08:19:47;8.13;;;1.73;;
15381;SDS011;7789;51.364;12.358;2023-01-31T08:24:51;7.90;;;1.80;;
15381;SDS011;7789;51.364;12.358;2023-01-31T08:29:55;10.43;;;2.30;;
15381;SDS011;7789;51.364;12.358;2023-01-31T08:34:58;9.30;;;1.93;;
15381;SDS011;7789;51.364;12.358;2023-01-31T08:40:03;6.83;;;1.53;;
15381;SDS011;7789;51.364;12.358;2023-01-31T08:45:07;8.27;;;2.00;;
15381;SDS011;7789;51.364;12.358;2023-01-31T08:50:11;8.00;;;2.00;;
15381;SDS011;7789;51.364;12.358;2023-01-31T08:55:30;5.20;;;1.97;;
15381;SDS011;7789;51.364;12.358;2023-01-31T09:00:34;6.83;;;1.50;;
15381;SDS011;7789;51.364;12.358;2023-01-31T09:05:37;6.27;;;1.67;;
15381;SDS011;7789;51.364;12.358;2023-01-31T09:10:42;9.50;;;1.80;;
15381;SDS011;7789;51.364;12.358;2023-01-31T09:15:45;5.87;;;1.30;;
15381;SDS011;7789;51.364;12.358;2023-01-31T09:20:48;7.80;;;1.47;;
15381;SDS011;7789;51.364;12.358;2023-01-31T09:25:53;9.97;;;2.10;;
15381;SDS011;7789;51.364;12.358;2023-01-31T09:31:01;10.87;;;1.83;;
15381;SDS011;7789;51.364;12.358;2023-01-31T09:36:06;10.40;;;2.37;;
15381;SDS011;7789;51.364;12.358;2023-01-31T09:41:15;6.97;;;1.57;;
15381;SDS011;7789;51.364;12.358;2023-01-31T09:46:26;10.10;;;2.10;;
15381;SDS011;7789;51.364;12.358;2023-01-31T09:51:33;9.00;;;1.57;;
15381;SDS011;7789;51.364;12.358;2023-01-31T09:56:39;6.33;;;1.70;;
15381;SDS011;7789;51.364;12.358;2023-01-31T10:01:54;8.30;;;1.73;;
15381;SDS011;7789;51.364;12.358;2023-01-31T10:07:03;7.87;;;1.57;;
15381;SDS011;7789;51.364;12.358;2023-01-31T10:12:15;13.00;;;2.37;;
15381;SDS011;7789;51.364;12.358;2023-01-31T10:17:22;7.17;;;2.00;;
15381;SDS011;7789;51.364;12.358;2023-01-31T10:22:32;11.23;;;1.90;;
15381;SDS011;7789;51.364;12.358;2023-01-31T10:27:42;8.50;;;1.83;;
15381;SDS011;7789;51.364;12.358;2023-01-31T10:32:50;6.90;;;1.77;;
15381;SDS011;7789;51.364;12.358;2023-01-31T10:38:02;8.83;;;2.17;;
15381;SDS011;7789;51.364;12.358;2023-01-31T10:43:15;6.70;;;2.27;;
15381;SDS011;7789;51.364;12.358;2023-01-31T10:48:23;6.70;;;1.77;;
15381;SDS011;7789;51.364;12.358;2023-01-31T10:53:33;10.23;;;2.17;;
15381;SDS011;7789;51.364;12.358;2023-01-31T10:58:47;7.83;;;2.30;;
15381;SDS011;7789;51.364;12.358;2023-01-31T11:03:53;10.43;;;2.00;;
15381;SDS011;7789;51.364;12.358;2023-01-31T11:08:58;10.10;;;2.47;;
15381;SDS011;7789;51.364;12.358;2023-01-31T11:14:05;9.27;;;2.80;;
15381;SDS011;7789;51.364;12.358;2023-01-31T11:19:20;10.13;;;2.20;;
15381;SDS011;7789;51.364;12.358;2023-01-31T11:24:31;8.83;;;2.50;;
15381;SDS011;7789;51.364;12.358;2023-01-31T11:29:37;8.50;;;2.50;;
15381;SDS011;7789;51.364;12.358;2023-01-31T11:34:53;8.20;;;2.60;;
15381;SDS011;7789;51.364;12.358;2023-01-31T11:39:58;8.73;;;3.00;;
15381;SDS011;7789;51.364;12.358;2023-01-31T11:45:15;10.17;;;3.10;;
15381;SDS011;7789;51.364;12.358;2023-01-31T11:50:21;7.00;;;2.70;;
15381;SDS011;7789;51.364;12.358;2023-01-31T11:55:33;8.63;;;2.60;;
15381;SDS011;7789;51.364;12.358;2023-01-31T12:00:41;10.70;;;2.77;;
15381;SDS011;7789;51.364;12.358;2023-01-31T12:05:58;8.67;;;3.03;;
15381;SDS011;7789;51.364;12.358;2023-01-31T12:11:04;8.83;;;3.10;;
15381;SDS011;7789;51.364;12.358;2023-01-31T12:16:10;9.83;;;2.80;;
15381;SDS011;7789;51.364;12.358;2023-01-31T12:21:14;12.20;;;3.60;;
15381;SDS011;7789;51.364;12.358;2023-01-31T12:26:20;8.50;;;3.03;;
15381;SDS011;7789;51.364;12.358;2023-01-31T12:31:37;10.37;;;2.77;;
15381;SDS011;7789;51.364;12.358;2023-01-31T12:36:55;13.00;;;3.13;;
15381;SDS011;7789;51.364;12.358;2023-01-31T12:42:17;10.50;;;2.77;;
15381;SDS011;7789;51.364;12.358;2023-01-31T12:47:49;9.90;;;3.00;;
15381;SDS011;7789;51.364;12.358;2023-01-31T12:53:17;12.23;;;3.33;;
15381;SDS011;7789;51.364;12.358;2023-01-31T12:58:34;15.43;;;3.67;;
15381;SDS011;7789;51.364;12.358;2023-01-31T13:04:00;7.17;;;2.50;;
15381;SDS011;7789;51.364;12.358;2023-01-31T13:09:19;12.93;;;3.37;;
15381;SDS011;7789;51.364;12.358;2023-01-31T13:14:26;13.37;;;3.53;;
15381;SDS011;7789;51.364;12.358;2023-01-31T13:19:35;11.50;;;3.90;;
15381;SDS011;7789;51.364;12.358;2023-01-31T13:24:44;12.63;;;3.33;;
15381;SDS011;7789;51.364;12.358;2023-01-31T13:29:55;10.53;;;3.37;;
15381;SDS011;7789;51.364;12.358;2023-01-31T13:35:05;9.33;;;3.40;;
15381;SDS011;7789;51.364;12.358;2023-01-31T13:40:16;14.07;;;3.13;;
15381;SDS011;7789;51.364;12.358;2023-01-31T13:45:23;10.40;;;2.77;;
15381;SDS011;7789;51.364;12.358;2023-01-31T13:50:33;10.83;;;3.17;;
15381;SDS011;7789;51.364;12.358;2023-01-31T13:55:41;9.70;;;2.97;;
15381;SDS011;7789;51.364;12.358;2023-01-31T14:00:48;11.67;;;3.53;;
15381;SDS011;7789;51.364;12.358;2023-01-31T14:06:01;12.70;;;3.10;;
15381;SDS011;7789;51.364;12.358;2023-01-31T14:16:36;8.70;;;2.67;;
15381;SDS011;7789;51.364;12.358;2023-01-31T14:21:52;8.47;;;2.70;;
15381;SDS011;7789;51.364;12.358;2023-01-31T14:26:58;7.83;;;2.73;;
15381;SDS011;7789;51.364;12.358;2023-01-31T14:32:04;9.50;;;2.43;;
15381;SDS011;7789;51.364;12.358;2023-01-31T14:37:19;6.93;;;2.23;;
15381;SDS011;7789;51.364;12.358;2023-01-31T14:42:38;5.77;;;2.53;;
15381;SDS011;7789;51.364;12.358;2023-01-31T14:48:00;7.70;;;2.47;;
15381;SDS011;7789;51.364;12.358;2023-01-31T14:53:24;7.97;;;2.47;;
15381;SDS011;7789;51.364;12.358;2023-01-31T14:58:45;6.93;;;2.30;;
15381;SDS011;7789;51.364;12.358;2023-01-31T15:03:50;6.83;;;2.13;;
15381;SDS011;7789;51.364;12.358;2023-01-31T15:14:41;6.43;;;2.70;;
15381;SDS011;7789;51.364;12.358;2023-01-31T15:19:48;9.10;;;3.90;;
15381;SDS011;7789;51.364;12.358;2023-01-31T15:24:58;8.93;;;2.67;;
15381;SDS011;7789;51.364;12.358;2023-01-31T15:30:11;8.13;;;2.80;;
15381;SDS011;7789;51.364;12.358;2023-01-31T15:35:21;7.17;;;3.10;;
15381;SDS011;7789;51.364;12.358;2023-01-31T15:40:31;7.93;;;3.30;;
15381;SDS011;7789;51.364;12.358;2023-01-31T15:45:35;7.23;;;2.93;;
15381;SDS011;7789;51.364;12.358;2023-01-31T15:50:47;8.00;;;2.93;;
15381;SDS011;7789;51.364;12.358;2023-01-31T15:55:58;12.33;;;3.50;;
15381;SDS011;7789;51.364;12.358;2023-01-31T16:01:05;6.87;;;2.97;;
15381;SDS011;7789;51.364;12.358;2023-01-31T16:06:16;6.83;;;3.00;;
15381;SDS011;7789;51.364;12.358;2023-01-31T16:11:26;5.00;;;2.60;;
15381;SDS011;7789;51.364;12.358;2023-01-31T16:16:34;6.83;;;2.47;;
15381;SDS011;7789;51.364;12.358;2023-01-31T16:21:38;8.93;;;2.63;;
15381;SDS011;7789;51.364;12.358;2023-01-31T16:26:50;7.27;;;2.47;;
15381;SDS011;7789;51.364;12.358;2023-01-31T16:31:57;6.57;;;2.33;;
15381;SDS011;7789;51.364;12.358;2023-01-31T16:37:01;5.73;;;2.80;;
15381;SDS011;7789;51.364;12.358;2023-01-31T16:42:08;6.33;;;3.03;;
15381;SDS011;7789;51.364;12.358;2023-01-31T16:47:31;5.10;;;2.00;;
15381;SDS011;7789;51.364;12.358;2023-01-31T16:52:52;6.37;;;2.07;;
15381;SDS011;7789;51.364;12.358;2023-01-31T16:58:11;7.67;;;2.23;;
15381;SDS011;7789;51.364;12.358;2023-01-31T17:03:35;6.40;;;2.50;;
15381;SDS011;7789;51.364;12.358;2023-01-31T17:08:39;5.13;;;2.30;;
15381;SDS011;7789;51.364;12.358;2023-01-31T17:13:46;5.20;;;2.43;;
15381;SDS011;7789;51.364;12.358;2023-01-31T17:18:50;4.17;;;1.93;;
15381;SDS011;7789;51.364;12.358;2023-01-31T17:23:55;5.20;;;2.23;;
15381;SDS011;7789;51.364;12.358;2023-01-31T17:28:59;4.50;;;2.20;;
15381;SDS011;7789;51.364;12.358;2023-01-31T17:34:04;3.03;;;2.00;;
15381;SDS011;7789;51.364;12.358;2023-01-31T17:39:13;4.13;;;2.30;;
15381;SDS011;7789;51.364;12.358;2023-01-31T17:44:18;3.77;;;1.97;;
15381;SDS011;7789;51.364;12.358;2023-01-31T17:49:23;3.23;;;1.87;;
15381;SDS011;7789;51.364;12.358;2023-01-31T17:54:27;6.37;;;2.00;;
15381;SDS011;7789;51.364;12.358;2023-01-31T17:59:32;8.00;;;2.70;;
15381;SDS011;7789;51.364;12.358;2023-01-31T18:04:35;4.57;;;2.27;;
15381;SDS011;7789;51.364;12.358;2023-01-31T18:09:38;4.10;;;2.60;;
15381;SDS011;7789;51.364;12.358;2023-01-31T18:14:43;6.50;;;2.70;;
15381;SDS011;7789;51.364;12.358;2023-01-31T18:19:46;5.57;;;2.47;;
15381;SDS011;7789;51.364;12.358;2023-01-31T18:24:50;4.97;;;2.60;;
15381;SDS011;7789;51.364;12.358;2023-01-31T18:29:55;5.23;;;2.27;;
15381;SDS011;7789;51.364;12.358;2023-01-31T18:34:59;4.27;;;1.80;;
15381;SDS011;7789;51.364;12.358;2023-01-31T18:40:02;3.50;;;1.93;;
15381;SDS011;7789;51.364;12.358;2023-01-31T18:45:08;3.43;;;1.70;;
15381;SDS011;7789;51.364;12.358;2023-01-31T18:50:13;3.53;;;2.23;;
15381;SDS011;7789;51.364;12.358;2023-01-31T18:55:16;4.30;;;2.07;;
15381;SDS011;7789;51.364;12.358;2023-01-31T19:00:22;3.90;;;2.20;;
15381;SDS011;7789;51.364;12.358;2023-01-31T19:05:37;3.07;;;2.10;;
15381;SDS011;7789;51.364;12.358;2023-01-31T19:11:03;4.60;;;2.87;;
15381;SDS011;7789;51.364;12.358;2023-01-31T19:16:12;7.30;;;3.00;;
15381;SDS011;7789;51.364;12.358;2023-01-31T19:21:27;4.60;;;2.93;;
15381;SDS011;7789;51.364;12.358;2023-01-31T19:26:39;3.83;;;2.27;;
15381;SDS011;7789;51.364;12.358;2023-01-31T19:31:47;6.13;;;2.80;;
15381;SDS011;7789;51.364;12.358;2023-01-31T19:36:50;4.03;;;2.70;;
15381;SDS011;7789;51.364;12.358;2023-01-31T19:41:54;6.80;;;5.27;;
15381;SDS011;7789;51.364;12.358;2023-01-31T19:47:02;3.93;;;2.10;;
15381;SDS011;7789;51.364;12.358;2023-01-31T19:52:06;4.77;;;2.57;;
15381;SDS011;7789;51.364;12.358;2023-01-31T19:57:10;3.60;;;2.30;;
15381;SDS011;7789;51.364;12.358;2023-01-31T20:02:14;3.90;;;2.20;;
15381;SDS011;7789;51.364;12.358;2023-01-31T20:07:18;2.80;;;2.30;;
15381;SDS011;7789;51.364;12.358;2023-01-31T20:12:25;4.47;;;2.83;;
15381;SDS011;7789;51.364;12.358;2023-01-31T20:17:34;3.30;;;2.73;;
15381;SDS011;7789;51.364;12.358;2023-01-31T20:22:37;4.07;;;2.80;;
15381;SDS011;7789;51.364;12.358;2023-01-31T20:27:43;5.93;;;3.00;;
15381;SDS011;7789;51.364;12.358;2023-01-31T20:32:48;5.17;;;3.23;;
15381;SDS011;7789;51.364;12.358;2023-01-31T20:37:53;5.70;;;3.00;;
15381;SDS011;7789;51.364;12.358;2023-01-31T20:42:56;4.07;;;3.50;;
15381;SDS011;7789;51.364;12.358;2023-01-31T20:48:01;5.03;;;3.30;;
15381;SDS011;7789;51.364;12.358;2023-01-31T20:53:15;5.33;;;2.97;;
15381;SDS011;7789;51.364;12.358;2023-01-31T20:58:52;4.27;;;2.50;;
15381;SDS011;7789;51.364;12.358;2023-01-31T21:03:59;4.60;;;3.00;;
15381;SDS011;7789;51.364;12.358;2023-01-31T21:09:07;4.90;;;2.70;;
15381;SDS011;7789;51.364;12.358;2023-01-31T21:14:29;11.00;;;8.30;;
15381;SDS011;7789;51.364;12.358;2023-01-31T21:19:34;7.17;;;4.40;;
15381;SDS011;7789;51.364;12.358;2023-01-31T21:24:39;5.17;;;3.30;;
15381;SDS011;7789;51.364;12.358;2023-01-31T21:29:46;4.60;;;3.63;;
15381;SDS011;7789;51.364;12.358;2023-01-31T21:35:16;4.87;;;3.80;;
15381;SDS011;7789;51.364;12.358;2023-01-31T21:40:22;4.13;;;3.40;;
15381;SDS011;7789;51.364;12.358;2023-01-31T21:45:33;5.40;;;4.00;;
15381;SDS011;7789;51.364;12.358;2023-01-31T21:50:49;7.47;;;4.63;;
15381;SDS011;7789;51.364;12.358;2023-01-31T21:55:59;16.67;;;11.03;;
15381;SDS011;7789;51.364;12.358;2023-01-31T22:01:06;10.47;;;6.07;;
15381;SDS011;7789;51.364;12.358;2023-01-31T22:06:18;9.93;;;4.60;;
15381;SDS011;7789;51.364;12.358;2023-01-31T22:11:23;8.03;;;4.40;;
15381;SDS011;7789;51.364;12.358;2023-01-31T22:16:35;5.43;;;4.13;;
15381;SDS011;7789;51.364;12.358;2023-01-31T22:21:52;9.20;;;4.20;;
15381;SDS011;7789;51.364;12.358;2023-01-31T22:26:55;6.70;;;4.10;;
15381;SDS011;7789;51.364;12.358;2023-01-31T22:32:00;8.00;;;4.27;;
15381;SDS011;7789;51.364;12.358;2023-01-31T22:37:11;6.13;;;3.67;;
15381;SDS011;7789;51.364;12.358;2023-01-31T22:42:17;8.90;;;5.13;;
15381;SDS011;7789;51.364;12.358;2023-01-31T22:47:28;7.37;;;4.87;;
15381;SDS011;7789;51.364;12.358;2023-01-31T22:52:34;9.00;;;3.90;;
15381;SDS011;7789;51.364;12.358;2023-01-31T22:57:39;7.90;;;4.53;;
15381;SDS011;7789;51.364;12.358;2023-01-31T23:02:46;8.90;;;4.17;;
15381;SDS011;7789;51.364;12.358;2023-01-31T23:07:52;8.33;;;3.70;;
15381;SDS011;7789;51.364;12.358;2023-01-31T23:13:01;8.97;;;3.47;;
15381;SDS011;7789;51.364;12.358;2023-01-31T23:18:07;11.60;;;3.20;;
15381;SDS011;7789;51.364;12.358;2023-01-31T23:23:14;7.70;;;3.77;;
15381;SDS011;7789;51.364;12.358;2023-01-31T23:28:19;10.37;;;3.50;;
15381;SDS011;7789;51.364;12.358;2023-01-31T23:33:24;8.53;;;3.17;;
15381;SDS011;7789;51.364;12.358;2023-01-31T23:38:34;7.07;;;3.90;;
15381;SDS011;7789;51.364;12.358;2023-01-31T23:43:39;11.63;;;3.97;;
15381;SDS011;7789;51.364;12.358;2023-01-31T23:48:46;9.77;;;4.00;;
15381;SDS011;7789;51.364;12.358;2023-01-31T23:53:52;7.97;;;3.63;;
15381;SDS011;7789;51.364;12.358;2023-01-31T23:58:59;10.13;;;3.80;;
